Terminal Aerodrome Forecast
Issued by NWS

Home | Current Version | Previous Version | Text Only | Print | Product List | Glossary On
Versions: 1 2 3 4 5 6 7 8 9 10 11 12 13 14 15 16 17 18 19 20
000
FTAK31 PAJN 230500
TAFAGY
TAF
PAGY 230521Z 2306/2406 VRB05KT P6SM SCT070 BKN100
      TEMPO 2306/2310 04010G20KT
     FM231000 VRB05KT P6SM VCSH BKN050 BKN100
     FM231800 21005KT P6SM VCSH BKN050
     FM232100 21014KT P6SM -SHRA BKN040
     FM240500 VRB05KT P6SM VCSH BKN050
      AMD LTD TO CLD VIS AND WIND=

USA.gov is the U.S. government's official web portal to all federal, state and local government web resources and services.